Sunday, October 21, 2018, 7:40 PM EDT
Back to Local

KLGA, New York La Guardia Airport

Location: Astoria, NY, United States Lat: 40.783
Local Time: 7:40 PM EDT (23:40 GMT) Lon: -73.883
Time Zone: US/Eastern Elev: 22 ft

Show me the last for .
Show Decoded

2018-10-21 18:51 METAR KLGA 212251Z 30013G24KT 10SM FEW050 07/M03 A3009 RMK AO2 PK WND 32029/2155
                 SLP188 T00721033 =
2018-10-21 17:51 METAR KLGA 212151Z 31020G28KT 10SM FEW050 08/M03 A3005 RMK AO2 PK WND 31032/2134
                 SLP175 T00831033 =
2018-10-21 16:51 METAR KLGA 212051Z 32018G29KT 10SM SCT055 09/M03 A3001 RMK AO2 PK WND 30029/2049
                 SLP161 T00891033 53020 =
2018-10-21 15:51 METAR KLGA 211951Z 33019G25KT 10SM SCT055 09/M03 A2999 RMK AO2 PK WND 32032/1905
                 SLP155 T00941028 =
2018-10-21 14:51 METAR KLGA 211851Z 33023G29KT 10SM SCT055 09/M03 A2996 RMK AO2 PK WND 31030/1811
                 SLP146 T00941028 =
2018-10-21 13:51 METAR KLGA 211751Z 31017G30KT 10SM BKN050 09/M02 A2995 RMK AO2 PK WND 31032/1719
                 SLP142 T00941022 10100 20083 51006 =
2018-10-21 12:51 METAR KLGA 211651Z 31025G33KT 10SM BKN048 09/M02 A2994 RMK AO2 PK WND 31034/1607
                 SLP138 T00941017 =
2018-10-21 11:51 METAR KLGA 211551Z 33019G37KT 10SM OVC049 08/M03 A2995 RMK AO2 PK WND 33037/1543
                 SLP142 T00831028 =
2018-10-21 10:51 METAR KLGA 211451Z 32024G33KT 10SM BKN045 09/M01 A2993 RMK AO2 PK WND 31035/1433
                 SLP135 T00891006 51042 =
2018-10-21 09:51 METAR KLGA 211351Z 33025G31KT 10SM SCT040 SCT100 BKN250 09/M01 A2991 RMK AO2 PK
                 WND 31034/1257 SLP126 T00891011 =
2018-10-21 08:51 METAR KLGA 211251Z 32020G30KT 10SM FEW040 SCT100 BKN250 09/00 A2987 RMK AO2 PK
                 WND 33034/1218 SLP115 T00890000 =
2018-10-21 07:51 METAR KLGA 211151Z 33024G33KT 10SM BKN100 10/00 A2981 RMK AO2 PK WND 33033/1144
                 SLP093 T01000000 10111 20100 53049 =
2018-10-21 06:51 METAR KLGA 211051Z 33016G27KT 10SM OVC070 10/03 A2975 RMK AO2 PK WND 32027/1049
                 SLP074 T01000033 =
2018-10-21 05:51 METAR KLGA 210951Z 31014KT 10SM SCT045 OVC055 10/04 A2970 RMK AO2 SLP057
                 T01000044 =
2018-10-21 04:51 METAR KLGA 210851Z 32013KT 10SM OVC050 10/06 A2966 RMK AO2 SLP044 T01000056
                 53020 =
2018-10-21 04:43 METAR KLGA 210843Z 32012KT 10SM OVC048 11/06 A2966 RMK AO2 T01060056 =
2018-10-21 03:51 METAR KLGA 210751Z 36012KT 10SM SCT015 BKN022 OVC030 11/07 A2962 RMK AO2 SLP031
                 T01060067 =
2018-10-21 03:05 METAR KLGA 210705Z 31010KT 10SM BKN019 BKN023 BKN120 11/07 A2961 RMK AO2
                 T01110072 =
2018-10-21 02:51 METAR KLGA 210651Z 32007KT 10SM SCT019 BKN110 11/07 A2962 RMK AO2 PRESRR SLP029
                 T01110067 =
2018-10-21 01:51 METAR KLGA 210551Z 30009KT 10SM SCT060 SCT100 11/07 A2960 RMK AO2 RAB0457E21
                 SLP024 P0000 60000 T01110067 10167 20111 58009 =
2018-10-21 00:51 METAR KLGA 210451Z 30014G21KT 10SM BKN055 12/06 A2962 RMK AO2 SLP030 T01220056
                 401830122 =
2018-10-20 23:51 METAR KLGA 210351Z 33008KT 10SM SCT055 SCT075 13/06 A2962 RMK AO2 SLP030
                 T01280056 =
2018-10-20 22:51 METAR KLGA 210251Z 32009KT 10SM FEW070 SCT250 13/06 A2963 RMK AO2 SLP033
                 T01330056 53007 =
2018-10-20 21:51 METAR KLGA 210151Z 35007KT 10SM SCT070 BKN090 BKN250 14/06 A2961 RMK AO2 WSHFT
                 0055 SLP028 T01390056 =
2018-10-20 21:15 METAR KLGA 210115Z 31010KT 10SM BKN075 BKN250 15/06 A2962 RMK AO2 WSHFT 0055
                 T01500061 =
2018-10-20 20:51 METAR KLGA 210051Z 26010KT 10SM SCT070 SCT150 SCT250 17/04 A2961 RMK AO2 SLP026
                 T01670039 =
2018-10-20 19:51 METAR KLGA 202351Z 24009KT 10SM FEW070 FEW150 FEW250 16/05 A2961 RMK AO2 SLP026
                 T01610050 10183 20161 53001 =

Support USWX by starting your Amazon purchase here.